Time;durP1;ratioP1;P1;durP2;ratioP2;P2;SDS_P1;SDS_P2;PMS_P1;PMS_P2;Temp;Humidity;BMP_temperature;BMP_pressure;BME280_temperature;BME280_humidity;BME280_pressure;Samples;Min_cycle;Max_cycle;Signal;HPM_P1;HPM_P2
2023/06/15 00:01:59;;;;;;;8.57;3.95;;;;;;;16.57;47.46;96412.25;5041541;28;20401;-66
2023/06/15 00:04:24;;;;;;;6.90;4.07;;;;;;;16.61;47.76;96404.69;5038142;28;20055;-68
2023/06/15 00:06:50;;;;;;;9.57;3.90;;;;;;;16.61;47.57;96404.69;5042690;28;20045;-67
2023/06/15 00:09:15;;;;;;;8.88;3.85;;;;;;;16.69;47.60;96397.06;5042854;28;20041;-64
2023/06/15 00:11:41;;;;;;;6.90;3.67;;;;;;;16.59;47.76;96404.31;5056279;28;20037;-65
2023/06/15 00:14:07;;;;;;;7.82;3.90;;;;;;;16.65;47.82;96404.63;5041247;28;20136;-69
2023/06/15 00:16:33;;;;;;;7.65;4.65;;;;;;;16.43;48.28;96399.38;5042667;28;20389;-68
2023/06/15 00:18:59;;;;;;;6.80;4.30;;;;;;;16.55;48.49;96409.13;5042018;28;20048;-69
2023/06/15 00:21:26;;;;;;;7.05;4.20;;;;;;;16.54;47.83;96405.53;5038877;28;20704;-68
2023/06/15 00:23:51;;;;;;;14.00;3.75;;;;;;;16.53;48.09;96406.75;5042133;28;20139;-67
2023/06/15 00:26:17;;;;;;;6.95;4.10;;;;;;;16.42;48.41;96408.84;5038330;28;20124;-68
2023/06/15 00:28:42;;;;;;;8.00;3.80;;;;;;;16.40;48.62;96406.50;5037986;28;20048;-68
2023/06/15 00:31:08;;;;;;;6.82;3.92;;;;;;;16.20;48.99;96394.47;5031396;28;20042;-68
2023/06/15 00:33:33;;;;;;;8.73;4.03;;;;;;;16.01;49.22;96402.19;5022900;28;20049;-68
2023/06/15 00:35:59;;;;;;;7.88;4.15;;;;;;;15.84;50.35;96406.66;5023678;28;20045;-68
2023/06/15 00:38:25;;;;;;;7.03;3.85;;;;;;;15.73;50.79;96392.16;5016558;28;20502;-68
2023/06/15 00:40:50;;;;;;;6.78;4.00;;;;;;;15.65;50.91;96396.19;5024663;28;20042;-66
2023/06/15 00:43:18;;;;;;;6.10;4.22;;;;;;;15.75;51.00;96397.28;5018369;28;20099;-68
2023/06/15 00:45:44;;;;;;;9.65;3.60;;;;;;;15.68;50.81;96395.34;5022150;28;20041;-66
2023/06/15 00:48:10;;;;;;;7.63;4.32;;;;;;;15.65;51.03;96396.94;5019129;28;20612;-68
2023/06/15 00:50:38;;;;;;;6.05;3.97;;;;;;;15.58;51.65;96397.00;5024329;28;20049;-68
2023/06/15 00:53:05;;;;;;;10.07;4.40;;;;;;;15.58;51.32;96401.75;5019829;28;20052;-63
2023/06/15 00:55:34;;;;;;;7.95;3.97;;;;;;;15.64;51.45;96403.66;5024647;28;20119;-67
2023/06/15 00:58:01;;;;;;;12.70;4.57;;;;;;;15.69;51.09;96405.19;5023034;28;20041;-67
2023/06/15 01:00:29;;;;;;;9.98;4.20;;;;;;;15.67;51.52;96405.59;5000517;28;20148;-65
2023/06/15 01:02:56;;;;;;;6.15;4.13;;;;;;;15.67;51.37;96402.84;5019707;28;20375;-68
2023/06/15 01:05:23;;;;;;;8.43;3.88;;;;;;;15.71;51.30;96404.81;5016628;28;20041;-68
2023/06/15 01:07:51;;;;;;;9.18;4.15;;;;;;;15.64;51.50;96411.94;5021374;28;20437;-67
2023/06/15 01:10:20;;;;;;;7.15;3.90;;;;;;;15.62;51.55;96413.53;5010814;28;20033;-69
2023/06/15 01:12:50;;;;;;;9.00;4.57;;;;;;;15.53;52.07;96410.47;5022700;28;20513;-68
2023/06/15 01:15:16;;;;;;;11.32;4.78;;;;;;;15.43;52.42;96415.66;5018142;28;20056;-68
2023/06/15 01:17:45;;;;;;;7.25;4.43;;;;;;;15.43;52.23;96414.84;5025195;28;20048;-66
2023/06/15 01:20:26;;;;;;;5.88;4.10;;;;;;;15.49;52.24;96411.28;5018172;28;20041;-67
2023/06/15 01:23:10;;;;;;;7.82;4.03;;;;;;;15.50;52.11;96409.28;5025162;28;20049;-65
2023/06/15 01:25:44;;;;;;;8.02;4.43;;;;;;;15.45;52.37;96412.50;5026164;28;20052;-70
2023/06/15 01:28:15;;;;;;;9.50;4.15;;;;;;;15.45;52.11;96409.75;5019539;28;20538;-68
2023/06/15 01:30:46;;;;;;;8.10;4.15;;;;;;;15.48;52.21;96404.19;5025429;28;20046;-68
2023/06/15 01:33:12;;;;;;;5.28;3.70;;;;;;;15.44;52.47;96411.69;5019813;28;20041;-67
2023/06/15 01:35:38;;;;;;;7.40;4.07;;;;;;;15.47;52.95;96407.34;5024267;28;20559;-70
2023/06/15 01:38:03;;;;;;;7.47;4.30;;;;;;;15.42;53.52;96411.31;5023516;28;20069;-63
2023/06/15 01:40:32;;;;;;;6.93;4.22;;;;;;;15.29;53.84;96407.50;5023230;28;20494;-68
2023/06/15 01:42:59;;;;;;;7.90;3.88;;;;;;;15.25;54.09;96399.22;5024723;28;20069;-68
2023/06/15 01:45:26;;;;;;;8.43;4.03;;;;;;;15.28;53.91;96392.88;5021282;28;20633;-68
2023/06/15 01:47:52;;;;;;;7.00;3.90;;;;;;;15.39;53.84;96401.09;5025623;28;20103;-68
2023/06/15 01:50:18;;;;;;;6.65;3.53;;;;;;;15.35;53.71;96405.84;5018352;28;20426;-68
2023/06/15 01:52:43;;;;;;;6.88;4.13;;;;;;;15.53;54.64;96402.19;5025463;28;20111;-68
2023/06/15 01:55:09;;;;;;;8.25;4.28;;;;;;;15.35;54.26;96407.84;5023569;28;20034;-68
2023/06/15 01:57:36;;;;;;;10.02;4.60;;;;;;;15.33;55.53;96401.94;5027472;28;20487;-65
2023/06/15 02:00:06;;;;;;;10.55;4.20;;;;;;;15.31;57.31;96410.63;5026869;28;20540;-63
2023/06/15 02:02:32;;;;;;;6.55;4.20;;;;;;;14.79;59.60;96410.53;5024964;28;20056;-68
2023/06/15 02:04:58;;;;;;;8.80;4.10;;;;;;;14.57;60.38;96416.13;5025666;28;20087;-68
2023/06/15 02:07:23;;;;;;;5.53;4.10;;;;;;;14.47;61.09;96405.91;5019463;28;20585;-67
2023/06/15 02:09:49;;;;;;;8.20;4.18;;;;;;;14.33;61.27;96410.28;5025166;28;20125;-66
2023/06/15 02:12:14;;;;;;;6.07;4.43;;;;;;;14.19;62.53;96409.53;5019446;28;20037;-69
2023/06/15 02:14:40;;;;;;;7.05;4.00;;;;;;;13.95;62.86;96418.25;5024913;28;20037;-68
2023/06/15 02:17:06;;;;;;;13.55;4.63;;;;;;;13.88;63.10;96418.25;5019228;28;20072;-65
2023/06/15 02:19:31;;;;;;;8.55;4.72;;;;;;;13.75;64.45;96408.81;5025797;28;20050;-68
2023/06/15 02:21:57;;;;;;;8.30;4.60;;;;;;;13.72;66.06;96420.59;5025307;28;20045;-68
2023/06/15 02:24:23;;;;;;;7.85;4.40;;;;;;;13.77;66.20;96422.97;5014647;28;20050;-68
2023/06/15 02:26:48;;;;;;;8.05;4.43;;;;;;;13.62;65.83;96424.16;5023186;28;20077;-68
2023/06/15 02:29:14;;;;;;;6.68;4.82;;;;;;;13.55;65.09;96422.97;5021497;28;20041;-67
2023/06/15 02:31:39;;;;;;;10.18;4.57;;;;;;;13.62;64.38;96429.66;5024201;28;20037;-68
2023/06/15 02:34:06;;;;;;;8.23;4.47;;;;;;;13.67;65.03;96427.31;5018488;28;20402;-63
2023/06/15 02:36:34;;;;;;;9.02;4.20;;;;;;;13.74;64.45;96424.56;5026801;28;20049;-68
2023/06/15 02:39:00;;;;;;;12.32;4.60;;;;;;;13.61;65.63;96426.09;5026016;28;20088;-66
2023/06/15 02:41:26;;;;;;;7.38;4.40;;;;;;;13.63;65.30;96432.03;5020823;28;20041;-67
2023/06/15 02:43:52;;;;;;;7.20;4.63;;;;;;;13.74;65.49;96435.56;5028264;28;20041;-68
2023/06/15 02:46:17;;;;;;;9.63;4.70;;;;;;;13.79;66.23;96434.38;5022906;28;20057;-65
2023/06/15 02:48:44;;;;;;;7.13;4.05;;;;;;;13.85;66.07;96441.06;5024536;28;20087;-67
2023/06/15 02:51:10;;;;;;;9.63;4.80;;;;;;;13.69;66.82;96446.19;5016811;28;20042;-68
2023/06/15 02:53:35;;;;;;;7.68;5.03;;;;;;;13.68;67.48;96445.38;5023014;28;20394;-68
2023/06/15 02:56:02;;;;;;;7.80;4.40;;;;;;;13.60;67.68;96445.78;5024307;28;20045;-67
2023/06/15 02:58:32;;;;;;;8.80;5.00;;;;;;;13.59;67.76;96450.47;5021263;28;20045;-68
2023/06/15 03:01:00;;;;;;;7.05;4.88;;;;;;;13.47;67.99;96451.69;5023236;28;20041;-68
2023/06/15 03:03:27;;;;;;;10.65;4.85;;;;;;;13.31;69.11;96459.50;5017271;28;20088;-69
2023/06/15 03:05:53;;;;;;;6.72;4.38;;;;;;;13.18;69.82;96454.34;5024425;28;20137;-69
2023/06/15 03:08:18;;;;;;;7.65;4.18;;;;;;;13.22;70.37;96448.03;5019597;28;20136;-68
2023/06/15 03:10:44;;;;;;;9.27;4.47;;;;;;;13.14;70.36;96455.50;5023131;28;20103;-68
2023/06/15 03:13:10;;;;;;;8.20;5.07;;;;;;;13.01;71.45;96457.84;5016356;28;20498;-66
2023/06/15 03:15:36;;;;;;;6.55;4.45;;;;;;;12.93;72.39;96461.75;5022683;28;20073;-69
2023/06/15 03:18:03;;;;;;;9.02;4.70;;;;;;;12.96;72.14;96461.75;5019761;28;20441;-64
2023/06/15 03:20:32;;;;;;;5.93;4.25;;;;;;;13.07;72.17;96470.03;5022285;28;20059;-69
2023/06/15 03:22:58;;;;;;;6.60;4.30;;;;;;;13.11;71.77;96467.31;5022179;28;20037;-68
2023/06/15 03:25:23;;;;;;;8.65;4.60;;;;;;;13.16;71.32;96467.69;5019869;28;20045;-66
2023/06/15 03:27:52;;;;;;;7.97;4.75;;;;;;;13.27;71.03;96466.91;5022539;28;20041;-67
2023/06/15 03:30:18;;;;;;;10.73;5.17;;;;;;;13.31;71.38;96468.53;5020799;28;20129;-65
2023/06/15 03:32:46;;;;;;;8.73;5.20;;;;;;;13.35;70.77;96469.31;5037129;28;20048;-68
2023/06/15 03:35:12;;;;;;;12.05;4.80;;;;;;;13.46;71.58;96465.81;5026083;28;20041;-66
2023/06/15 03:37:37;;;;;;;11.50;5.22;;;;;;;13.57;71.25;96467.38;5022117;28;20107;-68
2023/06/15 03:40:05;;;;;;;10.73;5.15;;;;;;;13.72;69.66;96470.94;5020154;28;20037;-63
2023/06/15 03:42:31;;;;;;;7.57;4.97;;;;;;;13.90;69.57;96470.94;5021635;28;20053;-66
2023/06/15 03:44:57;;;;;;;9.02;5.20;;;;;;;13.79;69.24;96481.16;5021546;28;20056;-68
2023/06/15 03:47:22;;;;;;;6.88;4.90;;;;;;;13.78;69.75;96485.09;5016125;28;20049;-67
2023/06/15 03:49:47;;;;;;;11.88;4.53;;;;;;;13.86;70.11;96481.16;5021795;28;20125;-66
2023/06/15 03:52:13;;;;;;;10.57;4.45;;;;;;;14.05;69.03;96485.50;5017379;28;20037;-67
2023/06/15 03:54:38;;;;;;;9.77;5.25;;;;;;;14.18;68.65;96487.84;5024339;28;20393;-66
2023/06/15 03:57:04;;;;;;;9.43;5.15;;;;;;;14.21;68.15;96490.59;5022741;28;20490;-61
2023/06/15 03:59:29;;;;;;;8.20;4.68;;;;;;;14.19;67.65;96483.88;5038087;28;20506;-66
2023/06/15 04:01:55;;;;;;;7.40;4.90;;;;;;;14.19;68.49;96481.13;5059571;28;20052;-66
2023/06/15 04:04:20;;;;;;;9.15;4.68;;;;;;;13.72;70.28;96487.47;5031883;28;20101;-66
2023/06/15 04:06:52;;;;;;;11.80;5.22;;;;;;;14.00;70.17;96490.63;5032170;28;20234;-66
2023/06/15 04:09:18;;;;;;;7.22;5.00;;;;;;;14.25;69.38;96498.84;5038155;28;20383;-68
2023/06/15 04:11:44;;;;;;;7.90;4.47;;;;;;;14.22;69.61;96494.13;5031462;28;20052;-68
2023/06/15 04:14:14;;;;;;;9.00;5.00;;;;;;;14.23;70.40;96502.00;5017592;28;20442;-67
2023/06/15 04:16:39;;;;;;;7.93;5.22;;;;;;;14.26;69.74;96501.22;5021978;28;20099;-66
2023/06/15 04:19:04;;;;;;;8.00;4.88;;;;;;;14.60;69.14;96502.75;5018383;28;20048;-62
2023/06/15 04:21:30;;;;;;;7.97;4.70;;;;;;;15.03;66.03;96500.59;5021710;28;20045;-68
2023/06/15 04:23:56;;;;;;;9.27;5.00;;;;;;;15.28;64.50;96508.00;5022049;28;20112;-67
2023/06/15 04:26:22;;;;;;;7.70;4.82;;;;;;;15.63;63.19;96512.53;5017523;28;20435;-67
2023/06/15 04:28:49;;;;;;;7.63;4.70;;;;;;;16.08;62.33;96508.25;5021556;28;20080;-67
2023/06/15 04:31:17;;;;;;;8.38;5.10;;;;;;;16.22;61.17;96517.25;5017490;28;20083;-67
2023/06/15 04:33:43;;;;;;;10.07;4.68;;;;;;;16.43;59.71;96513.47;5021217;28;20503;-66
2023/06/15 04:36:12;;;;;;;10.18;5.10;;;;;;;16.81;58.05;96521.00;5020882;28;20155;-68
2023/06/15 04:38:48;;;;;;;8.60;4.80;;;;;;;16.74;59.72;96526.59;5022992;28;20386;-69
2023/06/15 04:41:14;;;;;;;7.22;4.63;;;;;;;16.38;61.97;96527.72;5018017;28;20045;-66
2023/06/15 04:43:40;;;;;;;11.40;4.88;;;;;;;16.56;61.51;96529.53;5021881;28;20048;-68
2023/06/15 04:46:06;;;;;;;11.27;4.85;;;;;;;16.70;60.75;96529.41;5016464;28;20041;-69
2023/06/15 04:48:32;;;;;;;8.15;4.95;;;;;;;16.94;58.75;96538.66;5025236;28;20130;-68
2023/06/15 04:50:57;;;;;;;8.00;4.63;;;;;;;17.11;56.28;96536.09;5024747;28;20044;-68
2023/06/15 04:53:23;;;;;;;7.60;4.93;;;;;;;17.47;55.22;96538.41;5015989;28;20507;-70
2023/06/15 04:55:49;;;;;;;8.70;4.80;;;;;;;18.75;52.87;96545.13;5025977;28;20569;-68
2023/06/15 04:58:14;;;;;;;9.50;4.13;;;;;;;18.97;51.50;96542.75;5021090;28;20053;-68
2023/06/15 05:00:41;;;;;;;8.48;4.72;;;;;;;18.71;52.28;96548.75;5023797;28;20037;-68
2023/06/15 05:03:07;;;;;;;8.57;4.75;;;;;;;18.84;52.77;96545.38;5034841;28;20033;-67
2023/06/15 05:05:32;;;;;;;12.32;4.80;;;;;;;20.53;48.00;96544.50;5025698;28;20041;-68
2023/06/15 05:07:57;;;;;;;7.60;4.28;;;;;;;22.27;43.94;96551.09;5025936;28;20133;-68
2023/06/15 05:10:23;;;;;;;11.63;4.60;;;;;;;23.40;40.57;96552.41;5022559;28;20927;-66
2023/06/15 05:12:48;;;;;;;6.80;4.35;;;;;;;22.66;41.00;96554.56;5025863;28;20045;-68
2023/06/15 05:15:14;;;;;;;8.13;4.43;;;;;;;23.61;40.41;96559.22;5020684;28;20124;-68
2023/06/15 05:17:40;;;;;;;7.90;4.10;;;;;;;24.07;39.27;96555.88;5024939;28;20080;-67
2023/06/15 05:20:05;;;;;;;6.57;4.32;;;;;;;24.61;37.98;96557.31;5021011;28;20045;-65
2023/06/15 05:22:31;;;;;;;9.25;4.45;;;;;;;25.17;36.60;96565.75;5025261;28;20048;-68
2023/06/15 05:24:57;;;;;;;9.82;4.15;;;;;;;24.97;37.13;96560.59;5024529;28;20042;-68
2023/06/15 05:27:22;;;;;;;8.57;4.18;;;;;;;26.56;33.80;96568.19;5019913;28;20702;-66
2023/06/15 05:29:47;;;;;;;10.68;4.03;;;;;;;23.35;38.51;96568.97;5022892;28;20440;-65
2023/06/15 05:32:13;;;;;;;7.55;4.38;;;;;;;23.04;39.83;96569.66;5019446;28;20045;-67
2023/06/15 05:34:38;;;;;;;5.32;4.03;;;;;;;23.65;38.39;96575.84;5024551;28;20061;-68
2023/06/15 05:37:04;;;;;;;7.57;3.92;;;;;;;23.71;38.22;96576.03;5023235;28;20116;-63
2023/06/15 05:39:29;;;;;;;10.25;4.40;;;;;;;23.37;38.68;96578.47;5021730;28;20042;-68
2023/06/15 05:41:55;;;;;;;9.57;4.57;;;;;;;21.28;42.35;96578.69;5013321;28;20394;-68
2023/06/15 05:44:20;;;;;;;13.60;4.68;;;;;;;20.68;44.34;96575.53;5014691;28;20046;-66
2023/06/15 05:46:46;;;;;;;8.70;4.32;;;;;;;19.70;47.16;96582.53;5025545;28;20183;-68
2023/06/15 05:49:11;;;;;;;12.02;5.32;;;;;;;18.57;50.22;96584.28;5018221;28;20041;-70
2023/06/15 05:51:37;;;;;;;7.68;5.03;;;;;;;17.60;55.43;96582.94;5040052;28;20046;-65
2023/06/15 05:54:02;;;;;;;8.60;4.68;;;;;;;18.09;55.43;96586.22;5023423;28;20513;-63
2023/06/15 05:56:28;;;;;;;11.32;4.88;;;;;;;19.84;52.26;96585.03;5021231;28;20126;-67
2023/06/15 05:58:53;;;;;;;8.20;4.45;;;;;;;21.74;46.67;96578.59;5024857;28;20122;-68
2023/06/15 06:01:19;;;;;;;6.53;4.03;;;;;;;23.44;42.15;96586.59;5020086;28;20498;-67
2023/06/15 06:03:45;;;;;;;9.27;4.97;;;;;;;25.04;38.32;96579.91;5023832;28;20041;-69
2023/06/15 06:06:10;;;;;;;13.65;4.78;;;;;;;26.12;35.61;96589.13;5018848;28;20048;-68
2023/06/15 06:08:35;;;;;;;9.48;4.40;;;;;;;21.26;43.51;96586.69;5023795;28;20049;-68
2023/06/15 06:11:03;;;;;;;9.38;4.35;;;;;;;23.81;39.85;96592.44;5030815;28;20037;-67
2023/06/15 06:13:30;;;;;;;6.53;3.83;;;;;;;24.73;36.69;96588.44;5027712;28;20201;-67
2023/06/15 06:15:55;;;;;;;7.70;3.88;;;;;;;25.72;36.42;96595.78;5024662;28;20067;-67
2023/06/15 06:18:20;;;;;;;7.57;3.78;;;;;;;27.41;33.25;96591.19;5019411;28;20144;-68
2023/06/15 06:20:46;;;;;;;8.13;3.92;;;;;;;28.92;31.09;96605.44;5024349;28;20037;-67
2023/06/15 06:23:11;;;;;;;12.75;7.47;;;;;;;29.79;29.13;96600.31;5018961;28;20045;-66
2023/06/15 06:25:37;;;;;;;8.45;4.13;;;;;;;27.34;31.68;96605.63;5023767;28;20077;-67
2023/06/15 06:28:02;;;;;;;5.88;4.30;;;;;;;24.02;37.56;96604.03;5023369;28;20115;-63
2023/06/15 06:30:28;;;;;;;6.75;4.10;;;;;;;22.70;40.79;96604.69;5019304;28;20049;-66
2023/06/15 06:32:53;;;;;;;8.35;4.60;;;;;;;22.79;40.08;96599.22;5023449;28;20062;-66
2023/06/15 06:35:18;;;;;;;8.80;3.78;;;;;;;23.73;39.54;96604.31;5016521;28;20045;-67
2023/06/15 06:37:44;;;;;;;8.50;4.60;;;;;;;24.27;37.07;96605.06;5024090;28;20049;-66
2023/06/15 06:40:10;;;;;;;7.72;4.68;;;;;;;21.89;40.97;96601.25;5020132;28;20068;-65
2023/06/15 06:42:36;;;;;;;7.63;3.80;;;;;;;25.21;35.22;96602.81;5023009;28;20414;-68
2023/06/15 06:45:01;;;;;;;11.30;3.97;;;;;;;25.65;34.48;96605.28;5022539;28;20049;-68
2023/06/15 06:47:26;;;;;;;8.40;4.13;;;;;;;25.40;34.48;96609.22;5018561;28;20498;-67
2023/06/15 06:49:52;;;;;;;6.90;4.25;;;;;;;23.03;37.94;96604.38;5022502;28;20048;-68
2023/06/15 06:52:18;;;;;;;10.43;4.80;;;;;;;23.28;39.11;96611.91;5024438;28;20037;-68
2023/06/15 06:54:43;;;;;;;6.15;4.47;;;;;;;22.18;40.52;96606.72;5023570;28;20107;-67
2023/06/15 06:57:08;;;;;;;8.30;4.60;;;;;;;21.78;41.23;96604.34;5016634;28;20042;-65
2023/06/15 06:59:34;;;;;;;7.47;4.50;;;;;;;21.99;41.80;96608.53;5022883;28;20045;-68
2023/06/15 07:01:59;;;;;;;11.68;4.47;;;;;;;22.84;41.35;96615.38;5038628;28;20037;-68
2023/06/15 07:04:25;;;;;;;7.00;4.65;;;;;;;22.22;40.70;96615.78;5020182;28;20505;-66
2023/06/15 07:06:50;;;;;;;10.98;4.90;;;;;;;21.20;43.40;96605.94;5040619;28;20045;-68
2023/06/15 07:09:16;;;;;;;9.75;5.10;;;;;;;21.62;43.59;96608.00;5020405;28;20140;-67
2023/06/15 07:11:41;;;;;;;7.10;4.20;;;;;;;23.47;39.87;96607.25;5024069;28;20076;-66
2023/06/15 07:14:07;;;;;;;9.30;3.90;;;;;;;24.29;37.66;96608.19;5019632;28;20494;-67
2023/06/15 07:16:32;;;;;;;8.25;4.25;;;;;;;23.14;40.04;96601.25;5022562;28;20045;-67
2023/06/15 07:18:58;;;;;;;7.03;4.50;;;;;;;22.41;41.77;96605.63;5023548;28;20041;-67
2023/06/15 07:21:24;;;;;;;8.10;4.60;;;;;;;22.00;41.96;96601.69;5024690;28;20573;-66
2023/06/15 07:23:49;;;;;;;9.98;4.90;;;;;;;22.95;40.81;96600.28;5038796;28;20056;-68
2023/06/15 07:26:15;;;;;;;8.23;4.28;;;;;;;23.21;40.04;96601.78;5018005;28;20597;-68
2023/06/15 07:28:40;;;;;;;6.57;4.40;;;;;;;23.43;40.28;96606.63;5022033;28;20045;-67
2023/06/15 07:31:05;;;;;;;7.25;4.53;;;;;;;22.31;40.38;96604.75;5018474;28;20034;-67
2023/06/15 07:33:31;;;;;;;8.65;4.43;;;;;;;21.58;40.97;96605.31;5022823;28;20045;-67
2023/06/15 07:35:56;;;;;;;7.82;4.78;;;;;;;23.46;38.24;96614.88;5022291;28;20473;-68
2023/06/15 07:38:22;;;;;;;6.25;4.47;;;;;;;23.65;37.95;96610.16;5017315;28;20076;-65
2023/06/15 07:40:48;;;;;;;7.82;4.63;;;;;;;23.12;39.50;96615.69;5022925;28;20148;-65
2023/06/15 07:43:13;;;;;;;7.45;4.63;;;;;;;24.36;37.79;96605.91;5016855;28;20041;-67
2023/06/15 07:45:38;;;;;;;8.45;4.82;;;;;;;24.00;38.51;96601.72;5022182;28;20488;-67
2023/06/15 07:48:04;;;;;;;8.13;4.63;;;;;;;26.36;34.44;96608.06;5023672;28;20050;-63
2023/06/15 07:50:30;;;;;;;5.82;3.85;;;;;;;25.93;35.41;96600.44;5039307;28;20111;-66
2023/06/15 07:52:55;;;;;;;6.85;4.70;;;;;;;24.69;37.10;96610.22;5027414;28;20054;-67
2023/06/15 07:55:21;;;;;;;7.75;4.55;;;;;;;25.16;36.91;96595.03;5017673;28;20470;-66
2023/06/15 07:57:46;;;;;;;7.18;4.47;;;;;;;27.32;32.79;96607.38;5022527;28;20394;-66
2023/06/15 08:00:12;;;;;;;6.47;4.15;;;;;;;27.78;32.62;96609.75;5017684;28;20137;-67
2023/06/15 08:02:37;;;;;;;7.35;4.70;;;;;;;28.47;32.24;96599.13;5022385;28;20533;-67
2023/06/15 08:05:03;;;;;;;9.45;4.28;;;;;;;28.10;32.72;96604.44;5020758;28;20483;-62
2023/06/15 08:07:29;;;;;;;13.00;4.30;;;;;;;28.37;31.86;96608.97;5020644;28;20083;-67
2023/06/15 08:09:55;;;;;;;6.68;4.35;;;;;;;28.56;31.68;96603.91;5024688;28;20542;-66
2023/06/15 08:12:21;;;;;;;13.50;4.80;;;;;;;28.34;32.06;96607.13;5020401;28;20041;-69
2023/06/15 08:14:46;;;;;;;7.88;4.93;;;;;;;29.02;31.32;96602.47;5018291;28;20060;-68
2023/06/15 08:17:12;;;;;;;9.05;4.80;;;;;;;27.82;32.99;96607.50;5017197;28;20072;-68
2023/06/15 08:19:37;;;;;;;7.97;4.40;;;;;;;27.08;34.41;96608.13;5023020;28;20133;-67
2023/06/15 08:22:03;;;;;;;10.77;4.55;;;;;;;27.40;33.83;96606.50;5019850;28;20073;-64
2023/06/15 08:24:28;;;;;;;12.77;5.00;;;;;;;27.36;34.81;96600.28;5020354;28;20406;-68
2023/06/15 08:26:54;;;;;;;6.38;4.28;;;;;;;26.92;34.94;96589.69;5021753;28;20116;-67
2023/06/15 08:29:20;;;;;;;8.85;4.78;;;;;;;26.84;34.56;96594.88;5017073;28;20045;-67
2023/06/15 08:31:46;;;;;;;13.43;5.35;;;;;;;26.13;36.41;96599.13;5022477;28;20084;-65
2023/06/15 08:34:11;;;;;;;8.85;4.53;;;;;;;26.10;37.91;96598.03;5017578;28;20066;-67
2023/06/15 08:36:37;;;;;;;8.38;4.90;;;;;;;25.88;37.98;96591.84;5021707;28;20064;-67
2023/06/15 08:39:05;;;;;;;12.10;4.75;;;;;;;26.22;37.58;96599.09;5021445;28;20037;-63
2023/06/15 08:41:32;;;;;;;9.55;4.38;;;;;;;26.38;36.57;96595.13;5021036;28;20045;-67
2023/06/15 08:43:59;;;;;;;6.95;4.55;;;;;;;26.30;35.46;96593.91;5027358;28;20069;-68
2023/06/15 08:46:25;;;;;;;7.75;4.35;;;;;;;26.52;34.05;96602.06;5017392;28;20038;-68
2023/06/15 08:48:52;;;;;;;10.13;4.90;;;;;;;27.04;35.47;96599.88;5022084;28;20495;-66
2023/06/15 08:51:21;;;;;;;9.77;4.63;;;;;;;26.72;36.13;96606.34;5017039;28;20045;-67
2023/06/15 08:53:47;;;;;;;7.63;4.25;;;;;;;27.01;36.18;96594.44;5021828;28;20045;-68
2023/06/15 08:56:13;;;;;;;9.27;4.82;;;;;;;26.50;36.42;96607.38;5017903;28;20103;-67
2023/06/15 08:58:40;;;;;;;9.25;5.20;;;;;;;26.32;37.11;96597.00;5026365;28;20037;-67
2023/06/15 09:01:06;;;;;;;8.18;4.90;;;;;;;26.00;36.94;96607.75;5018434;28;20038;-66
2023/06/15 09:03:33;;;;;;;10.05;5.00;;;;;;;26.09;38.19;96599.28;5021741;28;20042;-68
2023/06/15 09:06:00;;;;;;;12.95;4.78;;;;;;;26.51;37.18;96606.13;5021682;28;20034;-67
2023/06/15 09:08:25;;;;;;;9.60;4.88;;;;;;;27.05;36.33;96606.31;5016401;28;20080;-67
2023/06/15 09:10:51;;;;;;;9.48;5.15;;;;;;;27.42;35.30;96597.59;5022334;28;20046;-68
2023/06/15 09:13:16;;;;;;;16.63;6.38;;;;;;;27.56;34.89;96596.06;5015087;28;20041;-68
2023/06/15 09:15:43;;;;;;;12.52;5.30;;;;;;;26.36;36.41;96589.19;5025362;28;20387;-67
2023/06/15 09:18:10;;;;;;;6.63;4.35;;;;;;;26.93;34.17;96590.47;5016969;28;20056;-67
2023/06/15 09:20:39;;;;;;;7.25;4.30;;;;;;;27.30;32.64;96599.41;5021444;28;20034;-67
2023/06/15 09:23:10;;;;;;;8.45;4.20;;;;;;;27.11;32.25;96592.34;5016449;28;20192;-63
2023/06/15 09:25:36;;;;;;;5.28;3.13;;;;;;;28.14;28.07;96602.97;5021669;28;20722;-68
2023/06/15 09:28:06;;;;;;;8.52;4.18;;;;;;;26.94;32.11;96600.44;5021811;28;20046;-68
2023/06/15 09:30:33;;;;;;;9.65;5.10;;;;;;;25.32;37.46;96593.97;5019548;28;20041;-67
2023/06/15 09:33:10;;;;;;;7.97;4.78;;;;;;;25.64;36.83;96588.94;5018916;28;20042;-66
2023/06/15 09:35:35;;;;;;;7.65;3.80;;;;;;;23.82;29.16;96601.59;5022532;28;20394;-68
2023/06/15 09:38:02;;;;;;;5.40;3.28;;;;;;;25.56;27.46;96588.47;5019810;28;20041;-68
2023/06/15 09:40:31;;;;;;;5.45;3.30;;;;;;;26.59;26.06;96595.31;5021521;28;20045;-68
2023/06/15 09:42:58;;;;;;;11.18;3.45;;;;;;;27.43;26.60;96596.34;5026574;28;20038;-66
2023/06/15 09:45:23;;;;;;;5.70;3.45;;;;;;;24.85;27.96;96595.13;5021853;28;20068;-67
2023/06/15 09:47:56;;;;;;;6.55;3.35;;;;;;;25.14;28.07;96594.72;5028757;28;20042;-67
2023/06/15 09:50:30;;;;;;;6.30;3.20;;;;;;;25.96;27.04;96597.94;5021573;28;20159;-67
2023/06/15 09:52:58;;;;;;;5.93;3.03;;;;;;;27.06;25.08;96594.59;5026184;28;20073;-66
2023/06/15 09:55:24;;;;;;;8.40;3.40;;;;;;;27.03;26.68;96594.75;5020500;28;20520;-67
2023/06/15 09:57:51;;;;;;;5.13;3.67;;;;;;;27.07;31.61;96584.88;5025145;28;20041;-67
2023/06/15 10:00:17;;;;;;;8.27;4.10;;;;;;;26.29;34.64;96600.78;5018918;28;20037;-66
2023/06/15 10:02:44;;;;;;;9.32;4.93;;;;;;;25.62;35.30;96599.84;5026444;28;20505;-65
2023/06/15 10:05:13;;;;;;;5.90;3.90;;;;;;;25.39;31.29;96596.47;5019341;28;20044;-68
2023/06/15 10:07:46;;;;;;;9.02;4.10;;;;;;;25.37;34.32;96588.50;5025760;28;20049;-69
2023/06/15 10:10:14;;;;;;;9.07;3.47;;;;;;;25.97;29.78;96591.06;5018740;28;20045;-65
2023/06/15 10:12:43;;;;;;;6.43;3.42;;;;;;;24.89;30.25;96590.97;5023822;28;20056;-67
2023/06/15 10:15:14;;;;;;;7.05;4.00;;;;;;;25.03;32.26;96586.78;5020093;28;20044;-67
2023/06/15 10:17:46;;;;;;;14.48;3.53;;;;;;;23.90;31.08;96597.31;5019143;28;20401;-67
2023/06/15 10:20:17;;;;;;;5.50;3.67;;;;;;;23.55;31.18;96591.00;5019652;28;20048;-67
2023/06/15 10:22:57;;;;;;;6.88;3.75;;;;;;;23.58;30.76;96596.47;5025843;28;20038;-66
2023/06/15 10:25:24;;;;;;;9.10;3.80;;;;;;;23.89;28.34;96595.72;5023559;28;20535;-67
2023/06/15 10:27:50;;;;;;;4.70;3.03;;;;;;;25.30;27.66;96583.22;5041862;28;20037;-65
2023/06/15 10:30:37;;;;;;;4.53;3.47;;;;;;;24.73;28.57;96597.63;5020238;28;20045;-67
2023/06/15 10:33:43;;;;;;;7.85;3.55;;;;;;;25.37;27.08;96594.13;5021812;28;20049;-63
2023/06/15 10:36:30;;;;;;;10.30;3.60;;;;;;;26.79;25.91;96587.09;5020734;28;20490;-67
2023/06/15 10:39:29;;;;;;;4.53;3.20;;;;;;;27.27;25.16;96583.50;5025088;28;20128;-67
2023/06/15 10:41:58;;;;;;;7.55;3.20;;;;;;;26.73;25.35;96586.22;5024245;28;20052;-66
2023/06/15 10:44:31;;;;;;;9.02;2.97;;;;;;;26.09;26.15;96576.84;5019365;28;20479;-64
2023/06/15 10:47:14;;;;;;;10.68;3.35;;;;;;;26.33;26.66;96581.72;5026237;28;20040;-66
2023/06/15 10:49:50;;;;;;;6.45;3.40;;;;;;;25.54;26.97;96588.94;5024679;28;20048;-67
2023/06/15 10:52:15;;;;;;;6.13;3.45;;;;;;;25.05;27.95;96589.09;5020862;28;20052;-67
2023/06/15 10:54:41;;;;;;;6.10;3.47;;;;;;;25.81;26.64;96586.56;5023487;28;20037;-66
2023/06/15 10:57:07;;;;;;;5.38;3.20;;;;;;;26.37;25.53;96592.78;5017745;28;20037;-67
2023/06/15 10:59:44;;;;;;;6.47;3.13;;;;;;;27.20;25.64;96595.88;5023094;28;20558;-67
2023/06/15 11:02:28;;;;;;;5.18;3.20;;;;;;;26.40;25.70;96595.44;5021254;28;20041;-67
2023/06/15 11:05:01;;;;;;;5.38;3.28;;;;;;;24.67;28.86;96591.09;5035277;28;20069;-66
2023/06/15 11:07:35;;;;;;;6.32;3.50;;;;;;;25.03;27.64;96591.59;5025243;28;20051;-67
2023/06/15 11:10:13;;;;;;;7.07;3.17;;;;;;;24.24;28.29;96590.75;5023220;28;20046;-67
2023/06/15 11:12:44;;;;;;;5.35;3.42;;;;;;;25.38;27.27;96584.44;5023440;28;20136;-66
2023/06/15 11:15:13;;;;;;;4.85;3.40;;;;;;;25.67;26.29;96590.81;5017948;28;20041;-64
2023/06/15 11:18:03;;;;;;;5.93;3.40;;;;;;;27.01;25.58;96583.19;5036985;28;20041;-67
2023/06/15 11:20:42;;;;;;;5.82;3.13;;;;;;;27.97;27.15;96591.44;5003388;28;20038;-67
2023/06/15 11:23:19;;;;;;;8.07;3.75;;;;;;;26.75;31.10;96588.56;4997588;28;20038;-68
2023/06/15 11:25:46;;;;;;;6.20;3.40;;;;;;;26.86;30.13;96580.34;5004066;28;20076;-68
2023/06/15 11:28:15;;;;;;;10.50;3.78;;;;;;;26.61;30.48;96596.41;4999224;28;20065;-67
2023/06/15 11:30:42;;;;;;;7.55;4.55;;;;;;;25.91;32.13;96594.50;4988346;28;20103;-66
2023/06/15 11:33:11;;;;;;;11.35;4.18;;;;;;;26.36;31.39;96592.00;5020278;28;20063;-67